sensor_id;sensor_type;location;lat;lon;timestamp;temperature;humidity
4556;DHT22;2290;48.674;9.018;2022-08-20T00:01:38;19.60;99.90
4556;DHT22;2290;48.674;9.018;2022-08-20T00:04:04;20.20;99.90
4556;DHT22;2290;48.674;9.018;2022-08-20T00:06:30;19.50;99.90
4556;DHT22;2290;48.674;9.018;2022-08-20T00:08:59;19.50;99.90
4556;DHT22;2290;48.674;9.018;2022-08-20T00:11:25;19.60;99.90
4556;DHT22;2290;48.674;9.018;2022-08-20T00:13:56;19.50;99.90
4556;DHT22;2290;48.674;9.018;2022-08-20T00:16:23;19.50;99.90
4556;DHT22;2290;48.674;9.018;2022-08-20T00:18:49;19.50;99.90
4556;DHT22;2290;48.674;9.018;2022-08-20T00:21:17;19.70;99.90
4556;DHT22;2290;48.674;9.018;2022-08-20T00:23:46;19.70;99.90
4556;DHT22;2290;48.674;9.018;2022-08-20T00:26:12;19.60;99.90
4556;DHT22;2290;48.674;9.018;2022-08-20T00:28:39;19.60;99.90
4556;DHT22;2290;48.674;9.018;2022-08-20T00:31:09;19.70;99.90
4556;DHT22;2290;48.674;9.018;2022-08-20T00:33:36;19.60;99.90
4556;DHT22;2290;48.674;9.018;2022-08-20T00:36:02;19.70;99.90
4556;DHT22;2290;48.674;9.018;2022-08-20T00:38:32;19.60;99.90
4556;DHT22;2290;48.674;9.018;2022-08-20T00:40:58;19.60;99.90
4556;DHT22;2290;48.674;9.018;2022-08-20T00:43:43;20.30;99.90
4556;DHT22;2290;48.674;9.018;2022-08-20T00:46:22;19.70;99.90
4556;DHT22;2290;48.674;9.018;2022-08-20T00:48:50;19.70;99.90
4556;DHT22;2290;48.674;9.018;2022-08-20T00:51:33;19.80;99.90
4556;DHT22;2290;48.674;9.018;2022-08-20T00:56:53;19.80;99.90
4556;DHT22;2290;48.674;9.018;2022-08-20T00:59:23;19.80;99.90
4556;DHT22;2290;48.674;9.018;2022-08-20T01:01:50;19.80;99.90
4556;DHT22;2290;48.674;9.018;2022-08-20T01:04:16;19.80;99.90
4556;DHT22;2290;48.674;9.018;2022-08-20T01:06:42;19.80;99.90
4556;DHT22;2290;48.674;9.018;2022-08-20T01:09:09;19.80;99.90
4556;DHT22;2290;48.674;9.018;2022-08-20T01:11:35;19.70;99.90
4556;DHT22;2290;48.674;9.018;2022-08-20T01:14:11;19.70;99.90
4556;DHT22;2290;48.674;9.018;2022-08-20T01:16:48;19.80;99.90
4556;DHT22;2290;48.674;9.018;2022-08-20T01:19:16;19.80;99.90
4556;DHT22;2290;48.674;9.018;2022-08-20T01:21:43;19.90;99.90
4556;DHT22;2290;48.674;9.018;2022-08-20T01:24:16;19.80;99.90
4556;DHT22;2290;48.674;9.018;2022-08-20T01:26:46;19.80;99.90
4556;DHT22;2290;48.674;9.018;2022-08-20T01:29:23;19.70;99.90
4556;DHT22;2290;48.674;9.018;2022-08-20T01:31:49;19.80;99.90
4556;DHT22;2290;48.674;9.018;2022-08-20T01:34:19;19.80;99.90
4556;DHT22;2290;48.674;9.018;2022-08-20T01:36:54;19.90;99.90
4556;DHT22;2290;48.674;9.018;2022-08-20T01:39:32;20.00;99.90
4556;DHT22;2290;48.674;9.018;2022-08-20T01:42:18;19.80;99.90
4556;DHT22;2290;48.674;9.018;2022-08-20T01:44:46;19.90;99.90
4556;DHT22;2290;48.674;9.018;2022-08-20T01:47:25;19.90;99.90
4556;DHT22;2290;48.674;9.018;2022-08-20T01:49:57;19.80;99.90
4556;DHT22;2290;48.674;9.018;2022-08-20T01:54:50;19.90;99.90
4556;DHT22;2290;48.674;9.018;2022-08-20T01:57:18;20.50;99.90
4556;DHT22;2290;48.674;9.018;2022-08-20T01:59:45;20.00;99.90
4556;DHT22;2290;48.674;9.018;2022-08-20T02:02:12;20.00;99.90
4556;DHT22;2290;48.674;9.018;2022-08-20T02:04:39;20.00;99.90
4556;DHT22;2290;48.674;9.018;2022-08-20T02:07:06;20.00;99.90
4556;DHT22;2290;48.674;9.018;2022-08-20T02:09:37;19.90;99.90
4556;DHT22;2290;48.674;9.018;2022-08-20T02:12:04;19.90;99.90
4556;DHT22;2290;48.674;9.018;2022-08-20T02:14:31;19.90;99.90
4556;DHT22;2290;48.674;9.018;2022-08-20T02:16:58;19.90;99.90
4556;DHT22;2290;48.674;9.018;2022-08-20T02:19:38;20.00;99.90
4556;DHT22;2290;48.674;9.018;2022-08-20T02:22:41;19.90;99.90
4556;DHT22;2290;48.674;9.018;2022-08-20T02:25:09;19.80;99.90
4556;DHT22;2290;48.674;9.018;2022-08-20T02:27:38;19.80;99.90
4556;DHT22;2290;48.674;9.018;2022-08-20T02:30:09;19.70;99.90
4556;DHT22;2290;48.674;9.018;2022-08-20T02:32:37;19.80;99.90
4556;DHT22;2290;48.674;9.018;2022-08-20T02:35:06;20.80;99.90
4556;DHT22;2290;48.674;9.018;2022-08-20T02:37:33;19.80;99.90
4556;DHT22;2290;48.674;9.018;2022-08-20T02:39:59;19.80;99.90
4556;DHT22;2290;48.674;9.018;2022-08-20T02:42:25;19.80;99.90
4556;DHT22;2290;48.674;9.018;2022-08-20T02:44:51;19.80;99.90
4556;DHT22;2290;48.674;9.018;2022-08-20T02:47:17;19.80;99.90
4556;DHT22;2290;48.674;9.018;2022-08-20T02:49:44;19.80;99.90
4556;DHT22;2290;48.674;9.018;2022-08-20T02:52:10;19.80;99.90
4556;DHT22;2290;48.674;9.018;2022-08-20T02:54:36;19.70;99.90
4556;DHT22;2290;48.674;9.018;2022-08-20T02:57:02;19.80;99.90
4556;DHT22;2290;48.674;9.018;2022-08-20T02:59:28;19.80;99.90
4556;DHT22;2290;48.674;9.018;2022-08-20T03:01:54;20.50;99.90
4556;DHT22;2290;48.674;9.018;2022-08-20T03:04:19;19.80;99.90
4556;DHT22;2290;48.674;9.018;2022-08-20T03:06:45;19.80;99.90
4556;DHT22;2290;48.674;9.018;2022-08-20T03:09:11;19.90;99.90
4556;DHT22;2290;48.674;9.018;2022-08-20T03:11:36;19.90;99.90
4556;DHT22;2290;48.674;9.018;2022-08-20T03:14:04;19.90;99.90
4556;DHT22;2290;48.674;9.018;2022-08-20T03:16:31;19.80;99.90
4556;DHT22;2290;48.674;9.018;2022-08-20T03:18:56;19.70;99.90
4556;DHT22;2290;48.674;9.018;2022-08-20T03:21:22;19.80;99.90
4556;DHT22;2290;48.674;9.018;2022-08-20T03:23:48;19.80;99.90
4556;DHT22;2290;48.674;9.018;2022-08-20T03:26:15;19.70;99.90
4556;DHT22;2290;48.674;9.018;2022-08-20T03:28:42;19.70;99.90
4556;DHT22;2290;48.674;9.018;2022-08-20T03:31:08;20.20;99.90
4556;DHT22;2290;48.674;9.018;2022-08-20T03:33:35;19.50;99.90
4556;DHT22;2290;48.674;9.018;2022-08-20T03:36:00;19.50;99.90
4556;DHT22;2290;48.674;9.018;2022-08-20T03:38:26;19.50;99.90
4556;DHT22;2290;48.674;9.018;2022-08-20T03:40:52;19.50;99.90
4556;DHT22;2290;48.674;9.018;2022-08-20T03:43:18;19.50;99.90
4556;DHT22;2290;48.674;9.018;2022-08-20T03:45:44;19.50;99.90
4556;DHT22;2290;48.674;9.018;2022-08-20T03:48:13;19.70;99.90
4556;DHT22;2290;48.674;9.018;2022-08-20T03:50:39;19.40;99.90
4556;DHT22;2290;48.674;9.018;2022-08-20T03:53:06;19.50;99.90
4556;DHT22;2290;48.674;9.018;2022-08-20T03:55:32;19.50;99.90
4556;DHT22;2290;48.674;9.018;2022-08-20T03:58:00;19.60;99.90
4556;DHT22;2290;48.674;9.018;2022-08-20T04:00:39;19.70;99.90
4556;DHT22;2290;48.674;9.018;2022-08-20T04:03:07;19.60;99.90
4556;DHT22;2290;48.674;9.018;2022-08-20T04:05:33;19.60;99.90
4556;DHT22;2290;48.674;9.018;2022-08-20T04:08:01;19.60;99.90
4556;DHT22;2290;48.674;9.018;2022-08-20T04:10:27;19.60;99.90
4556;DHT22;2290;48.674;9.018;2022-08-20T04:12:53;19.60;99.90
4556;DHT22;2290;48.674;9.018;2022-08-20T04:15:19;19.60;99.90
4556;DHT22;2290;48.674;9.018;2022-08-20T04:17:47;19.60;99.90
4556;DHT22;2290;48.674;9.018;2022-08-20T04:20:18;19.60;99.90
4556;DHT22;2290;48.674;9.018;2022-08-20T04:22:47;19.70;99.90
4556;DHT22;2290;48.674;9.018;2022-08-20T04:25:12;19.70;99.90
4556;DHT22;2290;48.674;9.018;2022-08-20T04:27:39;19.80;99.90
4556;DHT22;2290;48.674;9.018;2022-08-20T04:30:07;19.70;99.90
4556;DHT22;2290;48.674;9.018;2022-08-20T04:32:35;19.70;99.90
4556;DHT22;2290;48.674;9.018;2022-08-20T04:35:06;19.80;99.90
4556;DHT22;2290;48.674;9.018;2022-08-20T04:37:32;19.80;99.90
4556;DHT22;2290;48.674;9.018;2022-08-20T04:40:03;19.80;99.90
4556;DHT22;2290;48.674;9.018;2022-08-20T04:42:48;19.80;99.90
4556;DHT22;2290;48.674;9.018;2022-08-20T04:45:13;19.90;99.90
4556;DHT22;2290;48.674;9.018;2022-08-20T04:47:40;19.80;99.90
4556;DHT22;2290;48.674;9.018;2022-08-20T04:50:08;19.80;99.90
4556;DHT22;2290;48.674;9.018;2022-08-20T04:52:34;19.80;99.90
4556;DHT22;2290;48.674;9.018;2022-08-20T04:55:00;19.80;99.90
4556;DHT22;2290;48.674;9.018;2022-08-20T04:57:26;19.90;99.90
4556;DHT22;2290;48.674;9.018;2022-08-20T04:59:52;19.80;99.90
4556;DHT22;2290;48.674;9.018;2022-08-20T05:02:19;19.80;99.90
4556;DHT22;2290;48.674;9.018;2022-08-20T05:04:45;19.90;99.90
4556;DHT22;2290;48.674;9.018;2022-08-20T05:07:13;19.90;99.90
4556;DHT22;2290;48.674;9.018;2022-08-20T05:09:39;20.00;99.90
4556;DHT22;2290;48.674;9.018;2022-08-20T05:12:05;19.80;99.90
4556;DHT22;2290;48.674;9.018;2022-08-20T05:14:31;19.90;99.90
4556;DHT22;2290;48.674;9.018;2022-08-20T05:16:57;19.90;99.90
4556;DHT22;2290;48.674;9.018;2022-08-20T05:19:22;20.00;99.90
4556;DHT22;2290;48.674;9.018;2022-08-20T05:21:48;20.10;99.90
4556;DHT22;2290;48.674;9.018;2022-08-20T05:24:17;20.80;99.90
4556;DHT22;2290;48.674;9.018;2022-08-20T05:26:44;20.00;99.90
4556;DHT22;2290;48.674;9.018;2022-08-20T05:29:09;20.10;99.90
4556;DHT22;2290;48.674;9.018;2022-08-20T05:31:35;20.00;99.90
4556;DHT22;2290;48.674;9.018;2022-08-20T05:34:04;20.00;99.90
4556;DHT22;2290;48.674;9.018;2022-08-20T05:36:34;20.00;99.90
4556;DHT22;2290;48.674;9.018;2022-08-20T05:39:00;20.00;99.90
4556;DHT22;2290;48.674;9.018;2022-08-20T05:41:25;20.00;99.90
4556;DHT22;2290;48.674;9.018;2022-08-20T05:43:53;20.10;99.90
4556;DHT22;2290;48.674;9.018;2022-08-20T05:46:19;20.10;99.90
4556;DHT22;2290;48.674;9.018;2022-08-20T05:48:45;20.10;99.90
4556;DHT22;2290;48.674;9.018;2022-08-20T05:51:10;20.10;99.90
4556;DHT22;2290;48.674;9.018;2022-08-20T05:53:36;20.20;99.90
4556;DHT22;2290;48.674;9.018;2022-08-20T05:56:02;20.10;99.90
4556;DHT22;2290;48.674;9.018;2022-08-20T05:58:28;20.10;99.90
4556;DHT22;2290;48.674;9.018;2022-08-20T06:00:57;20.10;99.90
4556;DHT22;2290;48.674;9.018;2022-08-20T06:03:24;20.10;99.90
4556;DHT22;2290;48.674;9.018;2022-08-20T06:06:08;20.10;99.90
4556;DHT22;2290;48.674;9.018;2022-08-20T06:08:35;20.10;99.90
4556;DHT22;2290;48.674;9.018;2022-08-20T06:11:01;20.20;99.90
4556;DHT22;2290;48.674;9.018;2022-08-20T06:13:26;20.20;99.90
4556;DHT22;2290;48.674;9.018;2022-08-20T06:15:54;20.40;99.90
4556;DHT22;2290;48.674;9.018;2022-08-20T06:18:20;20.40;99.90
4556;DHT22;2290;48.674;9.018;2022-08-20T06:20:45;20.40;99.90
4556;DHT22;2290;48.674;9.018;2022-08-20T06:23:11;20.40;99.90
4556;DHT22;2290;48.674;9.018;2022-08-20T06:25:37;20.80;99.90
4556;DHT22;2290;48.674;9.018;2022-08-20T06:28:04;20.20;99.90
4556;DHT22;2290;48.674;9.018;2022-08-20T06:30:30;20.20;99.90
4556;DHT22;2290;48.674;9.018;2022-08-20T06:32:55;20.20;99.90
4556;DHT22;2290;48.674;9.018;2022-08-20T06:35:21;20.20;99.90
4556;DHT22;2290;48.674;9.018;2022-08-20T06:37:48;20.30;99.90
4556;DHT22;2290;48.674;9.018;2022-08-20T06:40:17;20.30;99.90
4556;DHT22;2290;48.674;9.018;2022-08-20T06:42:44;20.30;99.90
4556;DHT22;2290;48.674;9.018;2022-08-20T06:45:13;20.40;99.90
4556;DHT22;2290;48.674;9.018;2022-08-20T06:47:43;20.30;99.90
4556;DHT22;2290;48.674;9.018;2022-08-20T06:50:17;20.40;99.90
4556;DHT22;2290;48.674;9.018;2022-08-20T06:52:43;20.50;99.90
4556;DHT22;2290;48.674;9.018;2022-08-20T06:55:13;20.60;99.90
4556;DHT22;2290;48.674;9.018;2022-08-20T06:57:39;20.60;99.90
4556;DHT22;2290;48.674;9.018;2022-08-20T07:00:07;20.70;99.90
4556;DHT22;2290;48.674;9.018;2022-08-20T07:02:34;20.70;99.90
4556;DHT22;2290;48.674;9.018;2022-08-20T07:05:01;20.70;99.90
4556;DHT22;2290;48.674;9.018;2022-08-20T07:07:27;20.70;99.90
4556;DHT22;2290;48.674;9.018;2022-08-20T07:10:05;20.90;99.90
4556;DHT22;2290;48.674;9.018;2022-08-20T07:12:31;20.80;99.90
4556;DHT22;2290;48.674;9.018;2022-08-20T07:14:56;20.70;99.90
4556;DHT22;2290;48.674;9.018;2022-08-20T07:17:22;20.70;99.90
4556;DHT22;2290;48.674;9.018;2022-08-20T07:19:47;20.70;99.90
4556;DHT22;2290;48.674;9.018;2022-08-20T07:22:13;20.60;99.90
4556;DHT22;2290;48.674;9.018;2022-08-20T07:24:39;20.60;99.90
4556;DHT22;2290;48.674;9.018;2022-08-20T07:27:05;20.70;99.90
4556;DHT22;2290;48.674;9.018;2022-08-20T07:29:31;20.60;99.90
4556;DHT22;2290;48.674;9.018;2022-08-20T07:32:17;20.90;99.90
4556;DHT22;2290;48.674;9.018;2022-08-20T07:35:07;20.80;99.90
4556;DHT22;2290;48.674;9.018;2022-08-20T07:37:37;20.90;99.90
4556;DHT22;2290;48.674;9.018;2022-08-20T07:40:04;20.80;99.90
4556;DHT22;2290;48.674;9.018;2022-08-20T07:42:30;20.80;99.90
4556;DHT22;2290;48.674;9.018;2022-08-20T07:44:56;20.80;99.90
4556;DHT22;2290;48.674;9.018;2022-08-20T07:47:21;20.70;99.90
4556;DHT22;2290;48.674;9.018;2022-08-20T07:49:47;20.80;99.90
4556;DHT22;2290;48.674;9.018;2022-08-20T07:52:13;20.90;99.90
4556;DHT22;2290;48.674;9.018;2022-08-20T07:54:40;21.00;99.90
4556;DHT22;2290;48.674;9.018;2022-08-20T07:57:07;21.00;99.90
4556;DHT22;2290;48.674;9.018;2022-08-20T07:59:34;20.90;99.90
4556;DHT22;2290;48.674;9.018;2022-08-20T08:02:00;20.90;99.90
4556;DHT22;2290;48.674;9.018;2022-08-20T08:04:25;21.10;99.90
4556;DHT22;2290;48.674;9.018;2022-08-20T08:06:51;21.10;99.90
4556;DHT22;2290;48.674;9.018;2022-08-20T08:09:17;21.20;99.90
4556;DHT22;2290;48.674;9.018;2022-08-20T08:11:45;21.20;99.90
4556;DHT22;2290;48.674;9.018;2022-08-20T08:14:18;21.20;99.90
4556;DHT22;2290;48.674;9.018;2022-08-20T08:16:47;21.30;99.90
4556;DHT22;2290;48.674;9.018;2022-08-20T08:19:14;21.30;99.90
4556;DHT22;2290;48.674;9.018;2022-08-20T08:21:41;21.50;99.90
4556;DHT22;2290;48.674;9.018;2022-08-20T08:24:08;21.60;99.90
4556;DHT22;2290;48.674;9.018;2022-08-20T08:26:35;21.60;99.90
4556;DHT22;2290;48.674;9.018;2022-08-20T08:29:01;21.70;99.90
4556;DHT22;2290;48.674;9.018;2022-08-20T08:31:27;21.90;99.90
4556;DHT22;2290;48.674;9.018;2022-08-20T08:33:54;21.70;99.90
4556;DHT22;2290;48.674;9.018;2022-08-20T08:36:20;21.90;99.90
4556;DHT22;2290;48.674;9.018;2022-08-20T08:38:45;21.90;99.90
4556;DHT22;2290;48.674;9.018;2022-08-20T08:41:33;21.80;99.90
4556;DHT22;2290;48.674;9.018;2022-08-20T08:46:31;22.00;99.90
4556;DHT22;2290;48.674;9.018;2022-08-20T08:48:59;22.00;99.90
4556;DHT22;2290;48.674;9.018;2022-08-20T08:51:45;22.10;99.90
4556;DHT22;2290;48.674;9.018;2022-08-20T08:54:15;22.30;99.90
4556;DHT22;2290;48.674;9.018;2022-08-20T08:56:41;22.40;99.90
4556;DHT22;2290;48.674;9.018;2022-08-20T08:59:08;22.50;99.90
4556;DHT22;2290;48.674;9.018;2022-08-20T09:01:40;22.60;99.90
4556;DHT22;2290;48.674;9.018;2022-08-20T09:04:08;22.60;99.90
4556;DHT22;2290;48.674;9.018;2022-08-20T09:06:35;22.60;99.90
4556;DHT22;2290;48.674;9.018;2022-08-20T09:09:03;22.80;99.90
4556;DHT22;2290;48.674;9.018;2022-08-20T09:11:30;23.00;99.90
4556;DHT22;2290;48.674;9.018;2022-08-20T09:13:56;23.00;99.90
4556;DHT22;2290;48.674;9.018;2022-08-20T09:16:23;23.20;99.90
4556;DHT22;2290;48.674;9.018;2022-08-20T09:18:50;23.10;99.90
4556;DHT22;2290;48.674;9.018;2022-08-20T09:21:16;23.10;99.90
4556;DHT22;2290;48.674;9.018;2022-08-20T09:23:42;23.00;99.90
4556;DHT22;2290;48.674;9.018;2022-08-20T09:26:08;23.00;99.90
4556;DHT22;2290;48.674;9.018;2022-08-20T09:28:34;23.30;99.90
4556;DHT22;2290;48.674;9.018;2022-08-20T09:30:59;23.40;99.90
4556;DHT22;2290;48.674;9.018;2022-08-20T09:33:25;23.40;99.90
4556;DHT22;2290;48.674;9.018;2022-08-20T09:35:51;23.40;99.90
4556;DHT22;2290;48.674;9.018;2022-08-20T09:38:17;23.30;99.90
4556;DHT22;2290;48.674;9.018;2022-08-20T09:40:42;23.30;99.90
4556;DHT22;2290;48.674;9.018;2022-08-20T09:43:09;23.20;99.90
4556;DHT22;2290;48.674;9.018;2022-08-20T09:45:36;23.20;99.90
4556;DHT22;2290;48.674;9.018;2022-08-20T09:48:02;23.00;99.90
4556;DHT22;2290;48.674;9.018;2022-08-20T09:50:30;23.00;99.90
4556;DHT22;2290;48.674;9.018;2022-08-20T09:52:57;23.20;99.90
4556;DHT22;2290;48.674;9.018;2022-08-20T09:55:50;23.20;99.90
4556;DHT22;2290;48.674;9.018;2022-08-20T10:01:08;23.40;99.90
4556;DHT22;2290;48.674;9.018;2022-08-20T10:03:34;23.40;99.90
4556;DHT22;2290;48.674;9.018;2022-08-20T10:06:00;23.40;99.90
4556;DHT22;2290;48.674;9.018;2022-08-20T10:08:26;23.30;99.90
4556;DHT22;2290;48.674;9.018;2022-08-20T10:10:51;23.20;99.90
4556;DHT22;2290;48.674;9.018;2022-08-20T10:13:17;23.10;99.90
4556;DHT22;2290;48.674;9.018;2022-08-20T10:15:43;22.90;99.90
4556;DHT22;2290;48.674;9.018;2022-08-20T10:18:08;22.80;99.90
4556;DHT22;2290;48.674;9.018;2022-08-20T10:20:34;22.50;99.90
4556;DHT22;2290;48.674;9.018;2022-08-20T10:23:00;22.60;99.90
4556;DHT22;2290;48.674;9.018;2022-08-20T10:25:26;22.40;99.90
4556;DHT22;2290;48.674;9.018;2022-08-20T10:27:53;22.20;99.90
4556;DHT22;2290;48.674;9.018;2022-08-20T10:30:20;22.00;99.90
4556;DHT22;2290;48.674;9.018;2022-08-20T10:32:46;21.80;99.90
4556;DHT22;2290;48.674;9.018;2022-08-20T10:35:12;21.60;99.90
4556;DHT22;2290;48.674;9.018;2022-08-20T10:37:37;21.60;99.90
4556;DHT22;2290;48.674;9.018;2022-08-20T10:40:04;21.40;99.90
4556;DHT22;2290;48.674;9.018;2022-08-20T10:42:29;21.50;99.90
4556;DHT22;2290;48.674;9.018;2022-08-20T10:44:55;21.60;99.90
4556;DHT22;2290;48.674;9.018;2022-08-20T10:47:27;21.70;99.90
4556;DHT22;2290;48.674;9.018;2022-08-20T10:50:00;21.90;99.90
4556;DHT22;2290;48.674;9.018;2022-08-20T10:52:27;21.90;99.90
4556;DHT22;2290;48.674;9.018;2022-08-20T10:54:53;22.10;99.90
4556;DHT22;2290;48.674;9.018;2022-08-20T10:57:21;22.30;99.90
4556;DHT22;2290;48.674;9.018;2022-08-20T10:59:49;22.50;99.90
4556;DHT22;2290;48.674;9.018;2022-08-20T11:02:16;22.90;99.90
4556;DHT22;2290;48.674;9.018;2022-08-20T11:04:42;23.30;99.90
4556;DHT22;2290;48.674;9.018;2022-08-20T11:07:25;23.20;99.90
4556;DHT22;2290;48.674;9.018;2022-08-20T11:09:51;23.10;99.90
4556;DHT22;2290;48.674;9.018;2022-08-20T11:12:18;22.70;99.90
4556;DHT22;2290;48.674;9.018;2022-08-20T11:14:45;22.50;99.90
4556;DHT22;2290;48.674;9.018;2022-08-20T11:17:11;22.30;99.90
4556;DHT22;2290;48.674;9.018;2022-08-20T11:19:43;22.30;99.90
4556;DHT22;2290;48.674;9.018;2022-08-20T11:22:09;22.00;99.90
4556;DHT22;2290;48.674;9.018;2022-08-20T11:24:36;21.90;99.90
4556;DHT22;2290;48.674;9.018;2022-08-20T11:27:03;21.80;99.90
4556;DHT22;2290;48.674;9.018;2022-08-20T11:29:29;21.80;99.90
4556;DHT22;2290;48.674;9.018;2022-08-20T11:31:55;21.70;99.90
4556;DHT22;2290;48.674;9.018;2022-08-20T11:34:20;21.70;99.90
4556;DHT22;2290;48.674;9.018;2022-08-20T11:36:47;21.50;99.90
4556;DHT22;2290;48.674;9.018;2022-08-20T11:39:13;21.60;99.90
4556;DHT22;2290;48.674;9.018;2022-08-20T11:41:39;21.70;99.90
4556;DHT22;2290;48.674;9.018;2022-08-20T11:44:05;21.70;99.90
4556;DHT22;2290;48.674;9.018;2022-08-20T11:46:30;21.70;99.90
4556;DHT22;2290;48.674;9.018;2022-08-20T11:48:57;21.70;99.90
4556;DHT22;2290;48.674;9.018;2022-08-20T11:51:23;21.60;99.90
4556;DHT22;2290;48.674;9.018;2022-08-20T11:53:48;21.60;99.90
4556;DHT22;2290;48.674;9.018;2022-08-20T11:56:15;21.60;99.90
4556;DHT22;2290;48.674;9.018;2022-08-20T11:58:41;21.70;99.90
4556;DHT22;2290;48.674;9.018;2022-08-20T12:01:07;21.80;99.90
4556;DHT22;2290;48.674;9.018;2022-08-20T12:03:33;21.90;99.90
4556;DHT22;2290;48.674;9.018;2022-08-20T12:05:58;22.10;99.90
4556;DHT22;2290;48.674;9.018;2022-08-20T12:08:24;22.10;99.90
4556;DHT22;2290;48.674;9.018;2022-08-20T12:10:49;22.10;99.90
4556;DHT22;2290;48.674;9.018;2022-08-20T12:13:15;22.10;99.90
4556;DHT22;2290;48.674;9.018;2022-08-20T12:15:41;22.30;99.90
4556;DHT22;2290;48.674;9.018;2022-08-20T12:18:08;22.30;99.90
4556;DHT22;2290;48.674;9.018;2022-08-20T12:20:35;22.50;99.90
4556;DHT22;2290;48.674;9.018;2022-08-20T12:23:01;22.50;99.90
4556;DHT22;2290;48.674;9.018;2022-08-20T12:25:27;22.60;99.90
4556;DHT22;2290;48.674;9.018;2022-08-20T12:27:53;22.80;99.90
4556;DHT22;2290;48.674;9.018;2022-08-20T12:30:21;22.60;99.90
4556;DHT22;2290;48.674;9.018;2022-08-20T12:32:47;22.60;99.90
4556;DHT22;2290;48.674;9.018;2022-08-20T12:35:14;22.50;99.90
4556;DHT22;2290;48.674;9.018;2022-08-20T12:37:41;22.50;99.90
4556;DHT22;2290;48.674;9.018;2022-08-20T12:40:10;22.50;99.90
4556;DHT22;2290;48.674;9.018;2022-08-20T12:42:36;22.60;99.90
4556;DHT22;2290;48.674;9.018;2022-08-20T12:45:03;22.40;99.90
4556;DHT22;2290;48.674;9.018;2022-08-20T12:47:32;22.30;99.90
4556;DHT22;2290;48.674;9.018;2022-08-20T12:50:09;22.30;99.90
4556;DHT22;2290;48.674;9.018;2022-08-20T12:52:35;22.30;99.90
4556;DHT22;2290;48.674;9.018;2022-08-20T12:55:04;22.40;99.90
4556;DHT22;2290;48.674;9.018;2022-08-20T12:57:39;22.60;99.90
4556;DHT22;2290;48.674;9.018;2022-08-20T13:00:09;22.80;99.90
4556;DHT22;2290;48.674;9.018;2022-08-20T13:02:36;23.00;99.90
4556;DHT22;2290;48.674;9.018;2022-08-20T13:05:03;23.20;99.90
4556;DHT22;2290;48.674;9.018;2022-08-20T13:07:29;23.30;99.90
4556;DHT22;2290;48.674;9.018;2022-08-20T13:09:55;23.60;99.90
4556;DHT22;2290;48.674;9.018;2022-08-20T13:12:20;23.90;99.90
4556;DHT22;2290;48.674;9.018;2022-08-20T13:14:46;24.20;99.90
4556;DHT22;2290;48.674;9.018;2022-08-20T13:17:11;24.80;99.90
4556;DHT22;2290;48.674;9.018;2022-08-20T13:19:40;25.40;99.90
4556;DHT22;2290;48.674;9.018;2022-08-20T13:22:09;25.50;99.90
4556;DHT22;2290;48.674;9.018;2022-08-20T13:24:35;25.60;99.90
4556;DHT22;2290;48.674;9.018;2022-08-20T13:27:11;25.60;99.90
4556;DHT22;2290;48.674;9.018;2022-08-20T13:29:37;25.50;99.90
4556;DHT22;2290;48.674;9.018;2022-08-20T13:32:04;25.40;99.90
4556;DHT22;2290;48.674;9.018;2022-08-20T13:34:29;25.50;99.90
4556;DHT22;2290;48.674;9.018;2022-08-20T13:36:55;25.70;99.90
4556;DHT22;2290;48.674;9.018;2022-08-20T13:39:22;25.60;99.90
4556;DHT22;2290;48.674;9.018;2022-08-20T13:41:48;25.40;99.90
4556;DHT22;2290;48.674;9.018;2022-08-20T13:44:13;25.30;99.90
4556;DHT22;2290;48.674;9.018;2022-08-20T13:46:39;25.30;99.90
4556;DHT22;2290;48.674;9.018;2022-08-20T13:49:04;25.60;99.90
4556;DHT22;2290;48.674;9.018;2022-08-20T13:51:30;25.80;99.90
4556;DHT22;2290;48.674;9.018;2022-08-20T13:53:56;25.70;99.90
4556;DHT22;2290;48.674;9.018;2022-08-20T13:56:21;25.60;99.90
4556;DHT22;2290;48.674;9.018;2022-08-20T13:58:47;25.40;99.90
4556;DHT22;2290;48.674;9.018;2022-08-20T14:01:13;25.60;99.90
4556;DHT22;2290;48.674;9.018;2022-08-20T14:03:38;25.90;99.90
4556;DHT22;2290;48.674;9.018;2022-08-20T14:06:04;26.20;99.90
4556;DHT22;2290;48.674;9.018;2022-08-20T14:08:30;26.30;99.90
4556;DHT22;2290;48.674;9.018;2022-08-20T14:10:56;26.10;99.90
4556;DHT22;2290;48.674;9.018;2022-08-20T14:13:23;26.00;99.90
4556;DHT22;2290;48.674;9.018;2022-08-20T14:15:49;25.90;99.90
4556;DHT22;2290;48.674;9.018;2022-08-20T14:18:15;25.80;99.90
4556;DHT22;2290;48.674;9.018;2022-08-20T14:20:42;25.60;99.90
4556;DHT22;2290;48.674;9.018;2022-08-20T14:23:08;25.60;99.90
4556;DHT22;2290;48.674;9.018;2022-08-20T14:25:34;25.70;99.90
4556;DHT22;2290;48.674;9.018;2022-08-20T14:28:12;25.60;99.90
4556;DHT22;2290;48.674;9.018;2022-08-20T14:30:38;25.60;99.90
4556;DHT22;2290;48.674;9.018;2022-08-20T14:33:04;25.50;99.90
4556;DHT22;2290;48.674;9.018;2022-08-20T14:35:30;25.80;99.90
4556;DHT22;2290;48.674;9.018;2022-08-20T14:37:58;26.30;99.70
4556;DHT22;2290;48.674;9.018;2022-08-20T14:40:25;26.60;98.80
4556;DHT22;2290;48.674;9.018;2022-08-20T14:42:51;26.90;98.80
4556;DHT22;2290;48.674;9.018;2022-08-20T14:45:17;27.30;97.70
4556;DHT22;2290;48.674;9.018;2022-08-20T14:47:45;27.40;97.10
4556;DHT22;2290;48.674;9.018;2022-08-20T14:50:18;27.30;97.20
4556;DHT22;2290;48.674;9.018;2022-08-20T14:52:44;27.20;97.20
4556;DHT22;2290;48.674;9.018;2022-08-20T14:55:13;27.20;96.70
4556;DHT22;2290;48.674;9.018;2022-08-20T14:57:39;26.90;96.00
4556;DHT22;2290;48.674;9.018;2022-08-20T15:00:08;26.90;97.00
4556;DHT22;2290;48.674;9.018;2022-08-20T15:02:36;27.10;95.90
4556;DHT22;2290;48.674;9.018;2022-08-20T15:05:06;27.40;95.60
4556;DHT22;2290;48.674;9.018;2022-08-20T15:07:35;27.40;95.30
4556;DHT22;2290;48.674;9.018;2022-08-20T15:10:02;27.10;94.00
4556;DHT22;2290;48.674;9.018;2022-08-20T15:12:30;26.80;94.70
4556;DHT22;2290;48.674;9.018;2022-08-20T15:14:55;26.80;95.30
4556;DHT22;2290;48.674;9.018;2022-08-20T15:17:27;27.20;95.80
4556;DHT22;2290;48.674;9.018;2022-08-20T15:19:54;27.60;94.70
4556;DHT22;2290;48.674;9.018;2022-08-20T15:22:21;27.60;94.20
4556;DHT22;2290;48.674;9.018;2022-08-20T15:24:47;27.40;95.00
4556;DHT22;2290;48.674;9.018;2022-08-20T15:27:15;27.60;95.20
4556;DHT22;2290;48.674;9.018;2022-08-20T15:29:41;28.10;94.70
4556;DHT22;2290;48.674;9.018;2022-08-20T15:32:07;28.40;93.50
4556;DHT22;2290;48.674;9.018;2022-08-20T15:34:34;28.40;93.10
4556;DHT22;2290;48.674;9.018;2022-08-20T15:37:29;28.60;92.60
4556;DHT22;2290;48.674;9.018;2022-08-20T15:39:55;28.60;93.00
4556;DHT22;2290;48.674;9.018;2022-08-20T15:42:21;28.80;93.10
4556;DHT22;2290;48.674;9.018;2022-08-20T15:44:47;28.70;90.80
4556;DHT22;2290;48.674;9.018;2022-08-20T15:47:26;29.00;91.10
4556;DHT22;2290;48.674;9.018;2022-08-20T15:49:57;29.10;90.10
4556;DHT22;2290;48.674;9.018;2022-08-20T15:52:25;28.30;89.30
4556;DHT22;2290;48.674;9.018;2022-08-20T15:54:55;28.50;90.30
4556;DHT22;2290;48.674;9.018;2022-08-20T15:57:31;28.90;88.70
4556;DHT22;2290;48.674;9.018;2022-08-20T16:00:20;28.90;89.00
4556;DHT22;2290;48.674;9.018;2022-08-20T16:06:18;30.10;88.40
4556;DHT22;2290;48.674;9.018;2022-08-20T16:09:02;30.40;87.60
4556;DHT22;2290;48.674;9.018;2022-08-20T16:11:59;31.20;85.30
4556;DHT22;2290;48.674;9.018;2022-08-20T16:14:35;32.30;82.90
4556;DHT22;2290;48.674;9.018;2022-08-20T16:17:12;33.30;81.10
4556;DHT22;2290;48.674;9.018;2022-08-20T16:19:49;34.10;77.30
4556;DHT22;2290;48.674;9.018;2022-08-20T16:22:17;32.90;76.30